Time;durP1;ratioP1;P1;durP2;ratioP2;P2;SDS_P1;SDS_P2;PMS_P1;PMS_P2;Temp;Humidity;BMP_temperature;BMP_pressure;BME280_temperature;BME280_humidity;BME280_pressure;Samples;Min_cycle;Max_cycle;Signal;HPM_P1;HPM_P2
2022/10/25 00:00:00;;;;;;;72.17;17.57;;;15.10;99.90;;;;;;5035995;28;20478;-84
2022/10/25 00:02:31;;;;;;;77.00;21.77;;;15.10;99.90;;;;;;5035188;28;20446;-84
2022/10/25 00:04:56;;;;;;;70.83;19.53;;;15.10;99.90;;;;;;5035264;28;20149;-84
2022/10/25 00:07:25;;;;;;;71.37;18.53;;;15.10;99.90;;;;;;5034773;28;20416;-84
2022/10/25 00:09:51;;;;;;;77.17;20.87;;;15.10;99.90;;;;;;5036843;28;20189;-84
2022/10/25 00:12:16;;;;;;;75.50;20.53;;;15.10;99.90;;;;;;5035269;28;20511;-84
2022/10/25 00:14:42;;;;;;;73.73;21.93;;;15.10;99.90;;;;;;5035470;28;20200;-84
2022/10/25 00:17:08;;;;;;;72.70;21.97;;;15.10;99.90;;;;;;5034668;28;20219;-84
2022/10/25 00:19:34;;;;;;;78.70;20.27;;;15.00;99.90;;;;;;5035356;28;20204;-84
2022/10/25 00:21:59;;;;;;;73.13;20.80;;;15.10;99.90;;;;;;5035944;28;20186;-84
2022/10/25 00:24:25;;;;;;;74.97;23.33;;;15.00;99.90;;;;;;5035890;28;20405;-84
2022/10/25 00:26:51;;;;;;;71.03;20.80;;;15.00;99.90;;;;;;5036137;28;20519;-84
2022/10/25 00:29:17;;;;;;;74.43;20.03;;;15.00;99.90;;;;;;5036930;28;20201;-84
2022/10/25 00:31:42;;;;;;;73.00;22.30;;;15.10;99.90;;;;;;5034941;28;20193;-84
2022/10/25 00:34:08;;;;;;;71.40;20.10;;;15.00;99.90;;;;;;5036472;28;20907;-84
2022/10/25 00:36:34;;;;;;;72.40;19.13;;;15.00;99.90;;;;;;5036979;28;20174;-84
2022/10/25 00:39:03;;;;;;;71.30;17.07;;;14.90;99.90;;;;;;5036633;28;20627;-84
2022/10/25 00:41:31;;;;;;;74.60;21.23;;;14.90;99.90;;;;;;5035555;28;20173;-84
2022/10/25 00:44:34;;;;;;;70.47;17.73;;;14.90;99.90;;;;;;5037205;28;20400;-84
2022/10/25 00:47:21;;;;;;;70.90;19.97;;;14.80;99.90;;;;;;5036940;28;20402;-84
2022/10/25 00:50:04;;;;;;;73.40;20.37;;;14.80;99.90;;;;;;5037689;28;20421;-84
2022/10/25 00:52:34;;;;;;;75.93;20.50;;;14.90;99.90;;;;;;5041328;28;20499;-84
2022/10/25 00:55:03;;;;;;;74.07;23.80;;;14.90;99.90;;;;;;5057965;28;20400;-84
2022/10/25 00:57:44;;;;;;;72.73;21.20;;;14.90;99.90;;;;;;5041956;28;20404;-84
2022/10/25 01:00:10;;;;;;;79.27;24.93;;;14.80;99.90;;;;;;5042608;28;20464;-84
2022/10/25 01:02:36;;;;;;;80.87;20.20;;;14.80;99.90;;;;;;5042944;28;20405;-84
2022/10/25 01:05:02;;;;;;;75.33;25.50;;;14.90;99.90;;;;;;5042375;28;20399;-84
2022/10/25 01:07:28;;;;;;;74.77;23.73;;;14.90;99.90;;;;;;5041097;28;20583;-84
2022/10/25 01:09:55;;;;;;;73.70;24.07;;;14.80;99.90;;;;;;5040959;28;20471;-84
2022/10/25 01:12:20;;;;;;;73.30;24.67;;;14.80;99.90;;;;;;5039244;28;20177;-84
2022/10/25 01:14:48;;;;;;;77.40;27.67;;;14.80;99.90;;;;;;5040646;28;20467;-84
2022/10/25 01:17:40;;;;;;;73.87;22.40;;;14.80;99.90;;;;;;5041483;28;20165;-84
2022/10/25 01:20:43;;;;;;;78.63;27.83;;;14.80;99.90;;;;;;5041875;28;20462;-84
2022/10/25 01:23:36;;;;;;;75.53;29.00;;;14.80;99.90;;;;;;5041702;28;20416;-84
2022/10/25 01:26:30;;;;;;;75.37;26.97;;;14.80;99.90;;;;;;5044320;28;20384;-84
2022/10/25 01:29:20;;;;;;;83.77;29.77;;;14.80;99.90;;;;;;5041917;28;20443;-84
2022/10/25 01:31:55;;;;;;;73.13;23.37;;;14.80;99.90;;;;;;5040110;28;20419;-84
2022/10/25 01:34:43;;;;;;;77.50;27.67;;;14.70;99.90;;;;;;5041920;28;20383;-84
2022/10/25 01:37:38;;;;;;;75.40;25.07;;;14.70;99.90;;;;;;5040120;28;20380;-84
2022/10/25 01:40:07;;;;;;;75.77;24.80;;;14.80;99.90;;;;;;5037692;28;21026;-84
2022/10/25 01:42:47;;;;;;;75.80;28.97;;;14.80;99.90;;;;;;5038560;28;20756;-84
2022/10/25 01:45:20;;;;;;;73.50;26.67;;;14.80;99.90;;;;;;5039606;28;20434;-84
2022/10/25 01:47:57;;;;;;;75.20;25.17;;;14.70;99.90;;;;;;5038380;28;20392;-84
2022/10/25 01:50:44;;;;;;;76.80;30.87;;;14.70;99.90;;;;;;5038692;28;20511;-84
2022/10/25 01:53:11;;;;;;;74.47;28.77;;;14.60;99.90;;;;;;5038703;28;20419;-85
2022/10/25 01:55:55;;;;;;;75.93;30.40;;;14.60;99.90;;;;;;5040708;28;20400;-84
2022/10/25 01:58:51;;;;;;;73.57;26.27;;;14.60;99.90;;;;;;5041108;28;20434;-84
2022/10/25 02:01:38;;;;;;;78.83;29.17;;;14.60;99.90;;;;;;5041688;28;20384;-84
2022/10/25 02:04:07;;;;;;;79.10;27.47;;;14.60;99.90;;;;;;5038222;28;20475;-84
2022/10/25 02:07:11;;;;;;;73.30;28.23;;;14.60;99.90;;;;;;5040536;28;20404;-84
2022/10/25 02:10:00;;;;;;;73.83;28.57;;;14.60;99.90;;;;;;5039193;28;20455;-84
2022/10/25 02:12:46;;;;;;;72.47;27.20;;;14.50;99.90;;;;;;5040288;28;20384;-84
2022/10/25 02:15:23;;;;;;;76.97;29.43;;;14.60;99.90;;;;;;5038861;28;20376;-84
2022/10/25 02:17:55;;;;;;;75.10;31.87;;;14.50;99.90;;;;;;5040798;28;20446;-84
2022/10/25 02:20:24;;;;;;;78.10;27.40;;;14.60;99.90;;;;;;5038513;28;20483;-84
2022/10/25 02:22:52;;;;;;;75.87;30.80;;;14.60;99.90;;;;;;5039602;28;20385;-84
2022/10/25 02:25:21;;;;;;;76.60;27.20;;;14.60;99.90;;;;;;5039814;28;20396;-84
2022/10/25 02:27:51;;;;;;;79.00;30.37;;;14.50;99.90;;;;;;5021323;28;20407;-84
2022/10/25 02:30:17;;;;;;;74.37;24.80;;;14.60;99.90;;;;;;5038457;28;20438;-84
2022/10/25 02:32:44;;;;;;;77.27;29.10;;;14.50;99.90;;;;;;5038532;28;20395;-84
2022/10/25 02:35:17;;;;;;;75.73;27.13;;;14.50;99.90;;;;;;5039634;28;20475;-84
2022/10/25 02:37:43;;;;;;;73.10;21.73;;;14.50;99.90;;;;;;5039775;28;20962;-84
2022/10/25 02:40:09;;;;;;;72.57;23.43;;;14.40;99.90;;;;;;5039915;28;20458;-84
2022/10/25 02:42:35;;;;;;;76.20;29.03;;;14.40;99.90;;;;;;5040142;28;20462;-84
2022/10/25 02:45:00;;;;;;;74.20;29.30;;;14.40;99.90;;;;;;5055386;28;20413;-84
2022/10/25 02:47:26;;;;;;;76.10;30.00;;;14.30;99.90;;;;;;5039916;28;20617;-84
2022/10/25 02:49:52;;;;;;;74.97;29.87;;;14.30;99.90;;;;;;5038425;28;20200;-84
2022/10/25 02:52:17;;;;;;;75.57;27.63;;;14.30;99.90;;;;;;5039422;28;20169;-84
2022/10/25 02:54:43;;;;;;;74.83;31.93;;;14.30;99.90;;;;;;5038880;28;20177;-84
2022/10/25 02:57:09;;;;;;;75.57;31.83;;;14.30;99.90;;;;;;5040134;28;20169;-84
2022/10/25 02:59:34;;;;;;;76.00;30.30;;;14.20;99.90;;;;;;5038706;28;20243;-84
2022/10/25 03:02:00;;;;;;;74.57;33.73;;;14.20;99.90;;;;;;5039372;28;20165;-84
2022/10/25 03:04:25;;;;;;;76.90;31.80;;;14.20;99.90;;;;;;5058758;28;20173;-84
2022/10/25 03:06:51;;;;;;;75.83;30.83;;;14.20;99.90;;;;;;5039647;28;20173;-84
2022/10/25 03:09:17;;;;;;;77.27;35.53;;;14.20;99.90;;;;;;5039493;28;20188;-84
2022/10/25 03:11:42;;;;;;;75.17;33.73;;;14.20;99.90;;;;;;5039316;28;20239;-84
2022/10/25 03:14:08;;;;;;;76.57;31.53;;;14.20;99.90;;;;;;5038403;28;20173;-84
2022/10/25 03:16:34;;;;;;;76.73;31.20;;;14.20;99.90;;;;;;5040447;28;20252;-84
2022/10/25 03:18:59;;;;;;;73.87;23.73;;;14.20;99.90;;;;;;5038416;28;20211;-84
2022/10/25 03:21:25;;;;;;;76.80;24.90;;;14.20;99.90;;;;;;5036988;28;20734;-84
2022/10/25 03:23:51;;;;;;;72.73;20.00;;;14.20;99.90;;;;;;5039268;28;20197;-84
2022/10/25 03:26:18;;;;;;;73.27;22.10;;;14.20;99.90;;;;;;5038571;28;20199;-84
2022/10/25 03:28:43;;;;;;;71.40;19.70;;;14.20;99.90;;;;;;5039165;28;20427;-84
2022/10/25 03:31:11;;;;;;;73.67;18.37;;;14.20;99.90;;;;;;5039054;28;20511;-84
2022/10/25 03:33:37;;;;;;;72.50;18.77;;;14.20;99.90;;;;;;5039097;28;20637;-84
2022/10/25 03:36:04;;;;;;;75.77;19.83;;;14.30;99.90;;;;;;5039211;28;20411;-84
2022/10/25 03:38:30;;;;;;;71.33;17.83;;;14.30;99.90;;;;;;5039224;28;20487;-84
2022/10/25 03:40:55;;;;;;;72.90;21.30;;;14.30;99.90;;;;;;5038682;28;20804;-84
2022/10/25 03:43:21;;;;;;;76.17;18.43;;;14.30;99.90;;;;;;5055017;28;20450;-84
2022/10/25 03:45:47;;;;;;;72.00;18.40;;;14.30;99.90;;;;;;5038038;28;20201;-84
2022/10/25 03:48:13;;;;;;;71.77;21.03;;;14.40;99.90;;;;;;5038770;28;20227;-84
2022/10/25 03:50:39;;;;;;;74.63;21.20;;;14.30;99.90;;;;;;5038651;28;20181;-84
2022/10/25 03:53:05;;;;;;;72.97;24.47;;;14.30;99.90;;;;;;5037904;28;20177;-84
2022/10/25 03:55:32;;;;;;;78.57;24.90;;;14.30;99.90;;;;;;5037757;28;20419;-84
2022/10/25 03:57:57;;;;;;;76.73;26.43;;;14.30;99.90;;;;;;5039145;28;20930;-84
2022/10/25 04:00:23;;;;;;;72.20;20.97;;;14.30;99.90;;;;;;5037277;28;20416;-85
2022/10/25 04:03:00;;;;;;;72.37;16.80;;;14.30;99.90;;;;;;5035397;28;20706;-83
2022/10/25 04:05:26;;;;;;;74.23;17.13;;;14.20;99.90;;;;;;5036143;28;20169;-84
2022/10/25 04:07:52;;;;;;;70.40;15.27;;;14.20;99.90;;;;;;5034979;28;20919;-84
2022/10/25 04:10:18;;;;;;;70.57;14.50;;;14.20;99.90;;;;;;5036615;28;20221;-84
2022/10/25 04:12:45;;;;;;;69.60;14.77;;;14.30;99.90;;;;;;5037452;28;20891;-84
2022/10/25 04:15:11;;;;;;;75.57;15.30;;;14.30;99.90;;;;;;5036792;28;20775;-84
2022/10/25 04:17:36;;;;;;;73.93;13.97;;;14.30;99.90;;;;;;5037298;28;20494;-84
2022/10/25 04:20:02;;;;;;;70.77;14.03;;;14.30;99.90;;;;;;5039024;28;20474;-84
2022/10/25 04:22:28;;;;;;;69.53;14.40;;;14.30;99.90;;;;;;5037373;28;20185;-84
2022/10/25 04:24:54;;;;;;;70.30;14.80;;;14.30;99.90;;;;;;5039120;28;20400;-84
2022/10/25 04:27:20;;;;;;;73.37;13.93;;;14.30;99.90;;;;;;5041499;28;20165;-84
2022/10/25 04:29:46;;;;;;;76.37;13.70;;;14.30;99.90;;;;;;5040276;28;20185;-84
2022/10/25 04:32:12;;;;;;;72.47;13.27;;;14.20;99.90;;;;;;5041829;28;20439;-84
2022/10/25 04:34:37;;;;;;;75.30;13.97;;;14.20;99.90;;;;;;5044970;28;20174;-84
2022/10/25 04:37:03;;;;;;;70.93;13.03;;;14.30;99.90;;;;;;5043781;28;20180;-84
2022/10/25 04:39:29;;;;;;;69.47;12.30;;;14.30;99.90;;;;;;5042726;28;20204;-84
2022/10/25 04:41:54;;;;;;;71.97;12.37;;;14.30;99.90;;;;;;5042091;28;20214;-84
2022/10/25 04:44:20;;;;;;;70.87;14.57;;;14.20;99.90;;;;;;5048883;28;20186;-84
2022/10/25 04:46:46;;;;;;;73.37;13.47;;;14.20;99.90;;;;;;5040969;28;20528;-84
2022/10/25 04:49:12;;;;;;;70.10;12.37;;;14.10;99.90;;;;;;5056728;28;20290;-84
2022/10/25 04:51:39;;;;;;;72.23;15.87;;;14.20;99.90;;;;;;5043548;28;20564;-84
2022/10/25 04:54:04;;;;;;;72.30;14.60;;;14.10;99.90;;;;;;5057806;28;20546;-84
2022/10/25 04:56:30;;;;;;;73.73;13.30;;;14.20;99.90;;;;;;5043210;28;20419;-84
2022/10/25 04:58:57;;;;;;;74.83;14.60;;;14.20;99.90;;;;;;5038568;28;20561;-84
2022/10/25 05:01:23;;;;;;;74.90;13.33;;;14.20;99.90;;;;;;5040284;28;20244;-84
2022/10/25 05:03:49;;;;;;;71.27;15.63;;;14.20;99.90;;;;;;5039327;28;20439;-84
2022/10/25 05:06:25;;;;;;;76.03;16.50;;;14.10;99.90;;;;;;5040069;28;20173;-84
2022/10/25 05:08:52;;;;;;;83.43;18.77;;;14.10;99.90;;;;;;5056052;28;20496;-84
2022/10/25 05:11:21;;;;;;;70.37;17.60;;;14.10;99.90;;;;;;5041555;28;20407;-85
2022/10/25 05:13:50;;;;;;;79.13;22.00;;;14.10;99.90;;;;;;5044422;28;20408;-84
2022/10/25 05:16:23;;;;;;;75.67;18.73;;;14.00;99.90;;;;;;5044562;28;20456;-84
2022/10/25 05:18:54;;;;;;;73.90;20.27;;;14.00;99.90;;;;;;5044359;28;20455;-84
2022/10/25 05:21:21;;;;;;;72.17;18.33;;;14.00;99.90;;;;;;5110557;22;20487;-86
2022/10/25 05:23:47;;;;;;;69.90;16.50;;;14.00;99.90;;;;;;5045645;28;20451;-85
2022/10/25 05:26:19;;;;;;;71.00;14.40;;;14.00;99.90;;;;;;5042925;28;20439;-85
2022/10/25 05:28:47;;;;;;;72.43;13.80;;;14.00;99.90;;;;;;5043569;28;20283;-85
2022/10/25 05:31:21;;;;;;;72.43;10.70;;;14.00;99.90;;;;;;5043774;28;20408;-85
2022/10/25 05:33:49;;;;;;;71.77;12.63;;;14.00;99.90;;;;;;5044671;28;20807;-85
2022/10/25 05:36:15;;;;;;;71.00;10.10;;;14.00;99.90;;;;;;5047560;28;20392;-85
2022/10/25 05:38:41;;;;;;;72.13;12.30;;;14.00;99.90;;;;;;5046594;28;20474;-85
2022/10/25 05:41:09;;;;;;;69.63;12.10;;;13.90;99.90;;;;;;5047441;28;20176;-85
2022/10/25 05:43:35;;;;;;;69.20;10.87;;;14.00;99.90;;;;;;5047186;28;20403;-85
2022/10/25 05:46:11;;;;;;;69.77;10.40;;;13.90;99.90;;;;;;5048889;28;20930;-85
2022/10/25 05:48:37;;;;;;;69.90;9.03;;;14.00;96.10;;;;;;5047414;28;20211;-85
2022/10/25 05:51:25;;;;;;;74.27;12.37;;;14.00;41.50;;;;;;5047292;28;20418;-85
2022/10/25 05:53:52;;;;;;;76.90;13.10;;;13.90;41.50;;;;;;5045976;28;20388;-85
2022/10/25 05:56:20;;;;;;;71.40;12.77;;;13.80;99.90;;;;;;5047597;28;20404;-85
2022/10/25 05:58:46;;;;;;;71.17;12.90;;;13.80;99.90;;;;;;5047547;28;20452;-85
2022/10/25 06:01:14;;;;;;;76.70;13.40;;;13.80;99.90;;;;;;5043216;28;20410;-85
2022/10/25 06:03:40;;;;;;;69.73;13.53;;;13.90;99.90;;;;;;5044890;28;20400;-85
2022/10/25 06:06:07;;;;;;;77.40;12.10;;;13.90;99.90;;;;;;5045637;28;20756;-85
2022/10/25 06:08:34;;;;;;;68.87;10.33;;;13.90;99.90;;;;;;5045168;28;20181;-85
2022/10/25 06:11:12;;;;;;;71.50;11.60;;;13.90;99.90;;;;;;5045146;28;20408;-85
2022/10/25 06:13:38;;;;;;;70.23;11.53;;;13.90;99.90;;;;;;5045205;28;20384;-84
2022/10/25 06:16:06;;;;;;;68.57;10.60;;;13.90;99.90;;;;;;5045607;28;20432;-84
2022/10/25 06:18:33;;;;;;;71.97;13.50;;;13.90;99.90;;;;;;5043398;28;20530;-84
2022/10/25 06:21:07;;;;;;;73.70;10.83;;;13.80;99.90;;;;;;5046278;28;20855;-85
2022/10/25 06:23:35;;;;;;;71.60;18.73;;;13.90;99.90;;;;;;5045054;28;20422;-85
2022/10/25 06:26:04;;;;;;;76.03;18.30;;;13.80;99.90;;;;;;5044873;28;20427;-85
2022/10/25 06:28:30;;;;;;;79.77;20.90;;;13.80;99.90;;;;;;5046304;28;20439;-84
2022/10/25 06:31:06;;;;;;;78.23;21.60;;;13.80;99.90;;;;;;5042866;28;20424;-85
2022/10/25 06:33:32;;;;;;;74.93;20.57;;;13.80;99.90;;;;;;5042368;28;20415;-85
2022/10/25 06:36:00;;;;;;;76.30;16.80;;;13.90;99.90;;;;;;5046053;28;20493;-84
2022/10/25 06:38:27;;;;;;;71.57;16.97;;;13.90;99.90;;;;;;5046425;28;20451;-85
2022/10/25 06:41:00;;;;;;;73.10;16.80;;;14.00;99.90;;;;;;5046148;28;20410;-84
2022/10/25 06:43:26;;;;;;;73.10;20.30;;;14.00;99.90;;;;;;5045472;28;20833;-85
2022/10/25 06:45:52;;;;;;;73.00;18.60;;;13.90;99.90;;;;;;5046195;28;20400;-84
2022/10/25 06:48:18;;;;;;;71.20;16.27;;;14.00;99.90;;;;;;5044430;28;21049;-85
2022/10/25 06:50:44;;;;;;;73.53;17.00;;;14.00;99.90;;;;;;5044254;28;20436;-84
2022/10/25 06:53:09;;;;;;;74.20;17.40;;;14.00;99.90;;;;;;5043918;28;20411;-85
2022/10/25 06:55:35;;;;;;;74.50;16.53;;;14.00;99.90;;;;;;5046696;28;20165;-85
2022/10/25 06:58:05;;;;;;;73.77;12.80;;;14.00;99.90;;;;;;5045101;28;20652;-85
2022/10/25 07:00:34;;;;;;;70.10;12.50;;;14.10;99.90;;;;;;5043166;28;20173;-84
2022/10/25 07:02:59;;;;;;;78.17;14.50;;;14.10;99.90;;;;;;5045213;28;20463;-84
2022/10/25 07:05:25;;;;;;;68.40;10.57;;;14.10;99.90;;;;;;5044814;28;20432;-85
2022/10/25 07:07:52;;;;;;;70.53;10.90;;;14.10;99.90;;;;;;5045780;28;20244;-85
2022/10/25 07:10:19;;;;;;;67.27;9.43;;;14.10;99.90;;;;;;5044844;28;20463;-85
2022/10/25 07:12:45;;;;;;;68.93;9.30;;;14.10;99.90;;;;;;5045987;28;20411;-85
2022/10/25 07:15:10;;;;;;;68.20;8.73;;;14.10;99.90;;;;;;5045723;28;20419;-85
2022/10/25 07:17:36;;;;;;;67.67;10.00;;;14.10;99.90;;;;;;5046119;28;20223;-85
2022/10/25 07:20:03;;;;;;;70.00;8.17;;;14.10;99.90;;;;;;5046298;28;20205;-85
2022/10/25 07:22:28;;;;;;;66.50;9.03;;;14.10;99.90;;;;;;5046134;28;20180;-85
2022/10/25 07:24:54;;;;;;;71.03;10.53;;;14.10;99.90;;;;;;5046467;28;20402;-84
2022/10/25 07:27:20;;;;;;;67.33;9.40;;;14.10;99.90;;;;;;5046369;28;20165;-85
2022/10/25 07:29:46;;;;;;;69.47;10.63;;;14.20;99.90;;;;;;5044295;28;20192;-85
2022/10/25 07:32:11;;;;;;;71.40;10.60;;;14.20;99.90;;;;;;5046073;28;20234;-85
2022/10/25 07:34:37;;;;;;;81.00;12.30;;;14.20;99.90;;;;;;5045142;28;20416;-85
2022/10/25 07:37:04;;;;;;;70.70;12.80;;;14.20;99.90;;;;;;5046645;28;20404;-85
2022/10/25 07:39:29;;;;;;;73.07;15.00;;;14.20;99.90;;;;;;5046255;28;20224;-85
2022/10/25 07:41:55;;;;;;;79.30;16.67;;;14.20;99.90;;;;;;5045968;28;20411;-85
2022/10/25 07:44:20;;;;;;;72.20;14.60;;;14.30;99.90;;;;;;5046103;28;20170;-85
2022/10/25 07:46:47;;;;;;;70.07;13.10;;;14.30;99.90;;;;;;5046245;28;20223;-85
2022/10/25 07:49:13;;;;;;;72.60;12.90;;;14.30;99.90;;;;;;5046387;28;20192;-85
2022/10/25 07:51:39;;;;;;;70.07;11.90;;;14.30;99.90;;;;;;5043603;28;20404;-85
2022/10/25 07:54:05;;;;;;;69.20;12.67;;;14.30;99.90;;;;;;5045080;28;20173;-85
2022/10/25 07:56:30;;;;;;;73.80;12.47;;;14.30;99.90;;;;;;5046447;28;20408;-85
2022/10/25 07:58:56;;;;;;;71.93;11.67;;;14.30;99.90;;;;;;5045670;28;20491;-85
2022/10/25 08:01:24;;;;;;;72.10;13.87;;;14.30;99.90;;;;;;5048066;28;20173;-85
2022/10/25 08:03:51;;;;;;;77.13;15.53;;;14.30;99.90;;;;;;5049926;28;20204;-85
2022/10/25 08:06:17;;;;;;;75.30;17.00;;;14.30;99.90;;;;;;5049304;28;20503;-85
2022/10/25 08:08:43;;;;;;;80.30;18.50;;;14.30;99.90;;;;;;5050066;28;20511;-85
2022/10/25 08:11:09;;;;;;;77.40;18.17;;;14.30;99.90;;;;;;5050017;28;20441;-85
2022/10/25 08:13:36;;;;;;;74.97;19.40;;;14.30;99.90;;;;;;5050091;28;20411;-85
2022/10/25 08:16:01;;;;;;;82.30;17.33;;;14.40;99.90;;;;;;5049881;28;20172;-85
2022/10/25 08:18:27;;;;;;;75.47;21.47;;;14.40;99.90;;;;;;5049708;28;20459;-85
2022/10/25 08:20:53;;;;;;;84.80;23.23;;;14.40;99.90;;;;;;5049045;28;20188;-85
2022/10/25 08:23:19;;;;;;;77.30;20.67;;;14.50;99.90;;;;;;5048280;28;20229;-85
2022/10/25 08:25:45;;;;;;;72.30;18.47;;;14.60;99.90;;;;;;5048149;28;20415;-85
2022/10/25 08:28:11;;;;;;;80.03;19.90;;;14.70;99.90;;;;;;5049075;28;20180;-85
2022/10/25 08:30:36;;;;;;;76.97;21.67;;;14.70;99.90;;;;;;5048259;28;20443;-85
2022/10/25 08:33:02;;;;;;;81.37;18.90;;;14.70;99.90;;;;;;5049443;28;20164;-85
2022/10/25 08:35:28;;;;;;;76.23;20.20;;;14.80;99.90;;;;;;5049674;28;20166;-85
2022/10/25 08:37:54;;;;;;;75.37;18.63;;;14.90;99.90;;;;;;5049123;28;20159;-85
2022/10/25 08:40:22;;;;;;;75.37;17.77;;;14.90;99.90;;;;;;5047182;28;20201;-85
2022/10/25 08:43:17;;;;;;;75.40;19.40;;;14.90;99.90;;;;;;5048298;28;20199;-85
2022/10/25 08:46:07;;;;;;;71.40;14.90;;;14.90;99.90;;;;;;5028958;28;20404;-85
2022/10/25 08:48:39;;;;;;;75.00;15.33;;;15.00;99.90;;;;;;5048914;28;20440;-85
2022/10/25 08:51:19;;;;;;;70.40;14.87;;;15.20;99.90;;;;;;5048681;28;20390;-85
2022/10/25 08:53:48;;;;;;;69.67;12.67;;;15.20;99.90;;;;;;5046930;28;20392;-85
2022/10/25 08:56:17;;;;;;;72.60;12.87;;;15.30;99.90;;;;;;5048817;28;20416;-85
2022/10/25 08:58:56;;;;;;;71.90;11.13;;;15.20;99.90;;;;;;5048586;28;20449;-85
2022/10/25 09:01:28;;;;;;;69.70;10.80;;;15.30;99.90;;;;;;5048815;28;20460;-85
2022/10/25 09:03:54;;;;;;;70.77;10.00;;;15.30;99.90;;;;;;5047071;28;20419;-85
2022/10/25 09:06:33;;;;;;;69.90;8.60;;;15.30;99.90;;;;;;5047195;28;20771;-85
2022/10/25 09:09:37;;;;;;;72.10;10.73;;;15.40;99.90;;;;;;5047284;28;20510;-85
2022/10/25 09:12:11;;;;;;;71.63;11.43;;;15.60;99.90;;;;;;5048318;28;20400;-85
2022/10/25 09:14:58;;;;;;;71.97;9.90;;;15.60;99.90;;;;;;5045506;28;20925;-85
2022/10/25 09:17:42;;;;;;;70.30;10.03;;;15.70;99.90;;;;;;5046788;28;20413;-85
2022/10/25 09:20:22;;;;;;;67.67;9.40;;;15.80;99.90;;;;;;5046587;28;20460;-85
2022/10/25 09:22:56;;;;;;;78.57;9.47;;;15.90;99.90;;;;;;5047545;28;20406;-85
2022/10/25 09:25:39;;;;;;;71.33;9.73;;;16.00;99.90;;;;;;5046805;28;20381;-85
2022/10/25 09:28:15;;;;;;;70.47;7.17;;;16.10;99.90;;;;;;5047372;28;20440;-85
2022/10/25 09:30:43;;;;;;;70.90;8.20;;;16.20;99.90;;;;;;5047925;28;20381;-85
2022/10/25 09:33:14;;;;;;;74.00;7.77;;;16.20;99.90;;;;;;5047482;28;20409;-84
2022/10/25 09:35:45;;;;;;;67.00;6.30;;;16.40;99.90;;;;;;5047430;28;20375;-85
2022/10/25 09:38:37;;;;;;;71.40;11.87;;;16.50;99.90;;;;;;5047268;28;20844;-84
2022/10/25 09:41:04;;;;;;;72.83;11.37;;;16.60;99.90;;;;;;5044718;28;20462;-84
2022/10/25 09:43:52;;;;;;;69.37;12.70;;;16.60;99.90;;;;;;5040385;28;20410;-84
2022/10/25 09:46:41;;;;;;;69.60;11.83;;;16.60;99.90;;;;;;5045856;28;20397;-84
2022/10/25 09:49:06;;;;;;;67.70;6.50;;;16.70;99.90;;;;;;5036198;28;20484;-84
2022/10/25 09:51:59;;;;;;;73.33;9.87;;;16.80;99.90;;;;;;5045130;28;20410;-84
2022/10/25 09:54:54;;;;;;;65.97;10.13;;;16.80;99.90;;;;;;5047811;28;20150;-84
2022/10/25 09:57:20;;;;;;;70.83;8.60;;;16.60;99.90;;;;;;5041976;28;20418;-84
2022/10/25 09:59:50;;;;;;;69.07;7.40;;;16.60;99.90;;;;;;5047218;28;20530;-84
2022/10/25 10:02:23;;;;;;;71.07;6.70;;;16.60;99.90;;;;;;5061918;28;20164;-84
2022/10/25 10:04:50;;;;;;;70.97;7.97;;;16.50;99.90;;;;;;5045284;28;20777;-84
2022/10/25 10:07:34;;;;;;;68.40;10.40;;;16.40;99.90;;;;;;5046371;28;20409;-84
2022/10/25 10:10:04;;;;;;;68.73;12.00;;;16.40;99.90;;;;;;5045830;28;20433;-84
2022/10/25 10:12:44;;;;;;;67.93;8.47;;;16.40;99.90;;;;;;5045549;28;20759;-84
2022/10/25 10:15:26;;;;;;;66.57;7.07;;;16.50;99.90;;;;;;5044604;28;20469;-84
2022/10/25 10:18:24;;;;;;;65.93;6.27;;;16.60;99.90;;;;;;5046143;28;20394;-84
2022/10/25 10:21:09;;;;;;;67.10;7.47;;;16.50;99.90;;;;;;5045480;28;20437;-84
2022/10/25 10:23:46;;;;;;;70.90;6.03;;;16.50;99.90;;;;;;5044198;28;20486;-84
2022/10/25 10:26:26;;;;;;;70.10;9.20;;;16.60;99.90;;;;;;5045789;28;20386;-84
2022/10/25 10:29:11;;;;;;;69.90;7.63;;;16.50;99.90;;;;;;5045329;28;20417;-84
2022/10/25 10:31:41;;;;;;;68.60;8.23;;;16.50;99.90;;;;;;5045456;28;20428;-84
2022/10/25 10:34:41;;;;;;;65.97;7.00;;;16.50;99.90;;;;;;5043106;28;20413;-84
2022/10/25 10:37:14;;;;;;;75.43;7.67;;;16.60;99.90;;;;;;5041467;28;20415;-84
2022/10/25 10:39:53;;;;;;;67.67;7.67;;;16.70;99.90;;;;;;5042034;28;20448;-84
2022/10/25 10:42:21;;;;;;;70.50;7.30;;;16.70;99.90;;;;;;5042384;28;20392;-84
2022/10/25 10:45:19;;;;;;;68.10;8.77;;;16.60;99.90;;;;;;5042520;28;20771;-84
2022/10/25 10:47:48;;;;;;;65.87;6.80;;;16.70;99.90;;;;;;5032849;28;20965;-84
2022/10/25 10:50:26;;;;;;;71.37;14.70;;;16.70;99.90;;;;;;5044322;28;20421;-84
2022/10/25 10:52:54;;;;;;;77.47;25.30;;;16.80;99.90;;;;;;5044596;28;20383;-84
2022/10/25 10:55:29;;;;;;;77.77;34.13;;;16.90;99.90;;;;;;5041885;28;20412;-84
2022/10/25 10:57:59;;;;;;;79.37;37.87;;;16.90;99.90;;;;;;5040125;28;20455;-84
2022/10/25 11:00:27;;;;;;;79.37;42.37;;;17.00;99.90;;;;;;5044482;28;20465;-84
2022/10/25 11:02:53;;;;;;;74.87;32.93;;;17.00;99.90;;;;;;5042226;28;20395;-84
2022/10/25 11:05:36;;;;;;;75.67;28.17;;;17.10;99.90;;;;;;5041710;28;20430;-84
2022/10/25 11:08:17;;;;;;;68.57;14.50;;;17.20;99.90;;;;;;5043821;28;20236;-84
2022/10/25 11:10:43;;;;;;;71.30;15.37;;;17.30;99.90;;;;;;5042012;28;20395;-84
2022/10/25 11:13:17;;;;;;;69.60;15.63;;;17.30;99.90;;;;;;5041756;28;20395;-84
2022/10/25 11:16:01;;;;;;;75.60;13.33;;;17.40;99.90;;;;;;5044086;28;20172;-84
2022/10/25 11:18:54;;;;;;;72.50;13.30;;;17.40;99.90;;;;;;5043776;28;20459;-84
2022/10/25 11:21:42;;;;;;;68.73;14.17;;;17.50;99.90;;;;;;5110034;22;20568;-84
2022/10/25 11:24:40;;;;;;;68.27;12.40;;;17.60;99.90;;;;;;5040243;28;20423;-84
2022/10/25 11:27:33;;;;;;;68.07;10.63;;;17.80;99.90;;;;;;5040276;28;20380;-84
2022/10/25 11:30:16;;;;;;;70.33;8.73;;;17.90;99.90;;;;;;5038900;28;20428;-86
2022/10/25 11:33:13;;;;;;;68.50;7.37;;;18.00;99.90;;;;;;5040445;28;20395;-86
2022/10/25 11:36:02;;;;;;;67.90;7.97;;;18.00;99.90;;;;;;5039207;28;20400;-87
2022/10/25 11:39:17;;;;;;;67.07;4.40;;;18.00;99.90;;;;;;5026727;28;20470;-86
2022/10/25 11:41:52;;;;;;;68.70;5.23;;;18.10;99.90;;;;;;4979714;28;20430;-86
2022/10/25 11:44:37;;;;;;;66.10;4.60;;;18.00;99.90;;;;;;5038524;28;20447;-87
2022/10/25 11:47:15;;;;;;;67.80;3.50;;;18.20;99.90;;;;;;5037665;28;20407;-86
2022/10/25 11:50:08;;;;;;;70.27;4.00;;;18.20;99.90;;;;;;5039462;28;20761;-86
2022/10/25 11:52:57;;;;;;;66.40;3.37;;;18.20;98.60;;;;;;5054117;28;20407;-86
2022/10/25 11:55:59;;;;;;;67.10;3.10;;;18.20;97.40;;;;;;5039986;28;20415;-86
2022/10/25 11:58:33;;;;;;;68.23;3.00;;;18.10;97.50;;;;;;5038782;28;20565;-86
2022/10/25 12:01:39;;;;;;;79.00;3.87;;;18.10;99.80;;;;;;5039816;28;20415;-86
2022/10/25 12:04:27;;;;;;;66.97;2.80;;;17.90;99.90;;;;;;5036488;28;20419;-86
2022/10/25 12:06:55;;;;;;;67.70;3.40;;;17.90;99.90;;;;;;5037748;28;20406;-86
2022/10/25 12:09:59;;;;;;;65.27;2.70;;;17.90;98.80;;;;;;5038691;28;20557;-87
2022/10/25 12:12:39;;;;;;;72.20;3.40;;;17.90;99.90;;;;;;5030403;28;20412;-86
2022/10/25 12:15:10;;;;;;;71.20;3.43;;;17.90;99.90;;;;;;5038988;28;20899;-86
2022/10/25 12:17:37;;;;;;;66.10;2.83;;;17.90;98.90;;;;;;5038097;28;20403;-86
2022/10/25 12:20:06;;;;;;;65.73;2.80;;;17.90;99.90;;;;;;5054266;28;20495;-86
2022/10/25 12:22:44;;;;;;;66.17;2.90;;;18.00;99.90;;;;;;5037051;28;20496;-86
2022/10/25 12:25:30;;;;;;;71.60;2.87;;;18.00;97.20;;;;;;5039427;28;20400;-86
2022/10/25 12:28:21;;;;;;;68.27;3.00;;;18.00;93.00;;;;;;5039497;28;20435;-86
2022/10/25 12:30:49;;;;;;;66.20;3.27;;;18.00;91.40;;;;;;5038266;28;20473;-86
2022/10/25 12:33:33;;;;;;;65.50;2.60;;;18.00;91.30;;;;;;5039327;28;20396;-86
2022/10/25 12:36:04;;;;;;;69.07;3.60;;;18.00;93.60;;;;;;5038127;28;20413;-85
2022/10/25 12:38:38;;;;;;;69.90;3.80;;;18.10;94.80;;;;;;5038976;28;20451;-86
2022/10/25 12:41:24;;;;;;;72.30;3.47;;;18.00;97.80;;;;;;5039260;28;20412;-86
2022/10/25 12:43:58;;;;;;;67.40;3.37;;;18.10;95.50;;;;;;5038806;28;20426;-85
2022/10/25 12:46:50;;;;;;;65.67;3.07;;;18.10;89.10;;;;;;5039143;28;20384;-86
2022/10/25 12:49:39;;;;;;;68.47;3.30;;;18.20;84.80;;;;;;5042455;28;20431;-86
2022/10/25 12:52:20;;;;;;;68.77;3.33;;;18.10;76.70;;;;;;5040457;28;20404;-86
2022/10/25 12:55:16;;;;;;;66.80;3.23;;;18.00;81.20;;;;;;5042381;28;20396;-86